Aviation Digital Data Service (ADDS)

Output produced by METARs form (1712 UTC 30 October 2020)
found at http://www.aviationweather.gov/metar/data/
 
KTYS 301653Z 01008KT 320V040 10SM SCT036 OVC040 11/04 A3021 RMK AO2 SLP227 T01110039
KTYS 301618Z 01009KT 10SM OVC040 12/04 A3020 RMK AO2 T01170044
KTYS 301515Z 3015/3112 01004KT P6SM FEW023 OVC035 
     FM301700 35008KT P6SM FEW050 
     FM310000 VRB04KT P6SM SKC